sensor_id;sensor_type;location;lat;lon;timestamp;pressure;altitude;pressure_sealevel;temperature;humidity
7906;BME280;13291;40.472;-3.878;2023-04-30T00:01:25;52975.97;;;-139.96;37.26
7906;BME280;13291;40.472;-3.878;2023-04-30T00:03:53;52985.97;;;-139.96;37.21
7906;BME280;13291;40.472;-3.878;2023-04-30T00:06:20;52957.97;;;-139.96;37.04
7906;BME280;13291;40.472;-3.878;2023-04-30T00:08:47;52977.97;;;-139.96;36.60
7906;BME280;13291;40.472;-3.878;2023-04-30T00:11:14;52989.97;;;-139.96;36.59
7906;BME280;13291;40.472;-3.878;2023-04-30T00:13:40;52983.97;;;-139.96;36.54
7906;BME280;13291;40.472;-3.878;2023-04-30T00:16:08;52955.97;;;-139.96;36.48
7906;BME280;13291;40.472;-3.878;2023-04-30T00:18:35;52983.97;;;-139.96;36.13
7906;BME280;13291;40.472;-3.878;2023-04-30T00:21:04;52977.97;;;-139.96;36.15
7906;BME280;13291;40.472;-3.878;2023-04-30T00:23:31;52981.97;;;-139.96;36.15
7906;BME280;13291;40.472;-3.878;2023-04-30T00:25:58;52985.97;;;-139.96;36.02
7906;BME280;13291;40.472;-3.878;2023-04-30T00:28:25;52969.97;;;-139.96;36.22
7906;BME280;13291;40.472;-3.878;2023-04-30T00:30:52;52969.97;;;-139.96;36.40
7906;BME280;13291;40.472;-3.878;2023-04-30T00:33:19;52991.97;;;-139.96;36.61
7906;BME280;13291;40.472;-3.878;2023-04-30T00:35:46;52965.97;;;-139.96;36.02
7906;BME280;13291;40.472;-3.878;2023-04-30T00:38:14;52971.97;;;-139.96;36.03
7906;BME280;13291;40.472;-3.878;2023-04-30T00:40:42;52967.97;;;-139.96;36.49
7906;BME280;13291;40.472;-3.878;2023-04-30T00:43:10;52977.97;;;-139.96;36.25
7906;BME280;13291;40.472;-3.878;2023-04-30T00:45:37;52983.97;;;-139.96;36.17
7906;BME280;13291;40.472;-3.878;2023-04-30T00:48:03;52983.97;;;-139.96;36.68
7906;BME280;13291;40.472;-3.878;2023-04-30T00:50:31;52961.97;;;-139.96;37.01
7906;BME280;13291;40.472;-3.878;2023-04-30T00:52:58;52989.97;;;-139.96;36.80
7906;BME280;13291;40.472;-3.878;2023-04-30T00:55:27;52993.97;;;-139.96;36.50
7906;BME280;13291;40.472;-3.878;2023-04-30T00:57:54;52987.97;;;-139.96;36.61
7906;BME280;13291;40.472;-3.878;2023-04-30T01:00:21;52983.97;;;-139.96;36.73
7906;BME280;13291;40.472;-3.878;2023-04-30T01:02:48;52953.97;;;-139.96;36.99
7906;BME280;13291;40.472;-3.878;2023-04-30T01:05:15;52991.97;;;-139.96;36.99
7906;BME280;13291;40.472;-3.878;2023-04-30T01:07:43;52993.97;;;-139.96;37.33
7906;BME280;13291;40.472;-3.878;2023-04-30T01:10:11;52971.97;;;-139.96;37.02
7906;BME280;13291;40.472;-3.878;2023-04-30T01:12:45;52969.97;;;-139.96;36.76
7906;BME280;13291;40.472;-3.878;2023-04-30T01:15:25;52979.97;;;-139.96;36.59
7906;BME280;13291;40.472;-3.878;2023-04-30T01:17:56;52969.97;;;-139.96;36.31
7906;BME280;13291;40.472;-3.878;2023-04-30T01:20:27;52959.97;;;-139.96;36.39
7906;BME280;13291;40.472;-3.878;2023-04-30T01:23:04;52959.97;;;-139.96;36.61
7906;BME280;13291;40.472;-3.878;2023-04-30T01:25:53;52979.97;;;-139.96;36.23
7906;BME280;13291;40.472;-3.878;2023-04-30T01:28:28;53020.00;;;-139.96;36.60
7906;BME280;13291;40.472;-3.878;2023-04-30T01:30:55;52987.97;;;-139.96;36.27
7906;BME280;13291;40.472;-3.878;2023-04-30T01:33:22;53022.00;;;-139.96;36.73
7906;BME280;13291;40.472;-3.878;2023-04-30T01:36:12;52989.97;;;-139.96;36.33
7906;BME280;13291;40.472;-3.878;2023-04-30T01:38:55;52973.97;;;-139.96;36.51
7906;BME280;13291;40.472;-3.878;2023-04-30T01:41:31;53030.00;;;-139.96;36.89
7906;BME280;13291;40.472;-3.878;2023-04-30T01:44:09;53001.97;;;-139.96;37.05
7906;BME280;13291;40.472;-3.878;2023-04-30T01:46:39;52973.97;;;-139.96;36.84
7906;BME280;13291;40.472;-3.878;2023-04-30T01:52:02;52975.97;;;-139.96;36.97
7906;BME280;13291;40.472;-3.878;2023-04-30T01:54:34;52995.97;;;-139.96;36.85
7906;BME280;13291;40.472;-3.878;2023-04-30T01:57:05;52999.97;;;-139.96;37.30
7906;BME280;13291;40.472;-3.878;2023-04-30T01:59:35;53014.00;;;-139.96;37.03
7906;BME280;13291;40.472;-3.878;2023-04-30T02:02:05;52989.97;;;-139.96;37.19
7906;BME280;13291;40.472;-3.878;2023-04-30T02:04:32;52991.97;;;-139.96;37.70
7906;BME280;13291;40.472;-3.878;2023-04-30T02:06:59;52989.97;;;-139.96;37.42
7906;BME280;13291;40.472;-3.878;2023-04-30T02:09:26;53014.00;;;-139.96;37.69
7906;BME280;13291;40.472;-3.878;2023-04-30T02:11:55;53040.00;;;-139.96;37.95
7906;BME280;13291;40.472;-3.878;2023-04-30T02:14:23;53020.00;;;-139.96;38.35
7906;BME280;13291;40.472;-3.878;2023-04-30T02:16:51;53032.00;;;-139.96;38.27
7906;BME280;13291;40.472;-3.878;2023-04-30T02:19:18;53005.97;;;-139.96;37.95
7906;BME280;13291;40.472;-3.878;2023-04-30T02:21:44;52985.97;;;-139.96;38.17
7906;BME280;13291;40.472;-3.878;2023-04-30T02:24:11;53014.00;;;-139.96;38.02
7906;BME280;13291;40.472;-3.878;2023-04-30T02:26:38;53009.97;;;-139.96;38.62
7906;BME280;13291;40.472;-3.878;2023-04-30T02:29:05;53016.00;;;-139.96;38.62
7906;BME280;13291;40.472;-3.878;2023-04-30T02:31:32;53012.00;;;-139.96;38.95
7906;BME280;13291;40.472;-3.878;2023-04-30T02:34:00;53026.00;;;-139.96;38.81
7906;BME280;13291;40.472;-3.878;2023-04-30T02:36:27;53034.00;;;-139.96;39.07
7906;BME280;13291;40.472;-3.878;2023-04-30T02:38:54;53012.00;;;-139.96;39.20
7906;BME280;13291;40.472;-3.878;2023-04-30T02:41:21;53030.00;;;-139.96;39.07
7906;BME280;13291;40.472;-3.878;2023-04-30T02:43:47;53022.00;;;-139.96;39.21
7906;BME280;13291;40.472;-3.878;2023-04-30T02:46:14;53020.00;;;-139.96;39.38
7906;BME280;13291;40.472;-3.878;2023-04-30T02:48:41;53040.00;;;-139.96;39.25
7906;BME280;13291;40.472;-3.878;2023-04-30T02:51:10;53018.00;;;-139.96;39.17
7906;BME280;13291;40.472;-3.878;2023-04-30T02:53:36;53030.00;;;-139.96;39.45
7906;BME280;13291;40.472;-3.878;2023-04-30T02:56:04;53009.97;;;-139.96;39.57
7906;BME280;13291;40.472;-3.878;2023-04-30T02:58:31;53038.00;;;-139.96;39.64
7906;BME280;13291;40.472;-3.878;2023-04-30T03:00:58;53046.00;;;-139.96;39.79
7906;BME280;13291;40.472;-3.878;2023-04-30T03:03:25;53034.00;;;-139.96;40.09
7906;BME280;13291;40.472;-3.878;2023-04-30T03:05:51;53001.97;;;-139.96;39.86
7906;BME280;13291;40.472;-3.878;2023-04-30T03:08:22;53028.00;;;-139.96;40.16
7906;BME280;13291;40.472;-3.878;2023-04-30T03:10:49;53009.97;;;-139.96;40.49
7906;BME280;13291;40.472;-3.878;2023-04-30T03:13:16;53026.00;;;-139.96;40.64
7906;BME280;13291;40.472;-3.878;2023-04-30T03:15:43;53032.00;;;-139.96;40.60
7906;BME280;13291;40.472;-3.878;2023-04-30T03:18:10;53034.00;;;-139.96;41.07
7906;BME280;13291;40.472;-3.878;2023-04-30T03:20:37;53050.00;;;-139.96;40.97
7906;BME280;13291;40.472;-3.878;2023-04-30T03:23:04;53030.00;;;-139.96;41.17
7906;BME280;13291;40.472;-3.878;2023-04-30T03:25:32;53038.00;;;-139.96;41.69
7906;BME280;13291;40.472;-3.878;2023-04-30T03:27:59;53034.00;;;-139.96;41.92
7906;BME280;13291;40.472;-3.878;2023-04-30T03:30:27;53018.00;;;-139.96;42.10
7906;BME280;13291;40.472;-3.878;2023-04-30T03:32:54;53048.00;;;-139.96;41.93
7906;BME280;13291;40.472;-3.878;2023-04-30T03:35:21;53024.00;;;-139.96;42.08
7906;BME280;13291;40.472;-3.878;2023-04-30T03:37:47;53050.00;;;-139.96;42.26
7906;BME280;13291;40.472;-3.878;2023-04-30T03:40:14;53062.00;;;-139.96;41.98
7906;BME280;13291;40.472;-3.878;2023-04-30T03:42:43;53072.00;;;-139.96;42.46
7906;BME280;13291;40.472;-3.878;2023-04-30T03:45:10;53044.00;;;-139.96;42.53
7906;BME280;13291;40.472;-3.878;2023-04-30T03:47:37;53048.00;;;-139.96;42.38
7906;BME280;13291;40.472;-3.878;2023-04-30T03:50:04;53036.00;;;-139.96;42.53
7906;BME280;13291;40.472;-3.878;2023-04-30T03:52:32;53028.00;;;-139.96;42.17
7906;BME280;13291;40.472;-3.878;2023-04-30T03:54:59;53046.00;;;-139.96;42.24
7906;BME280;13291;40.472;-3.878;2023-04-30T03:57:26;53058.00;;;-139.96;42.37
7906;BME280;13291;40.472;-3.878;2023-04-30T03:59:54;53050.00;;;-139.96;42.72
7906;BME280;13291;40.472;-3.878;2023-04-30T04:02:21;53042.00;;;-139.96;42.30
7906;BME280;13291;40.472;-3.878;2023-04-30T04:04:49;53062.00;;;-139.96;42.29
7906;BME280;13291;40.472;-3.878;2023-04-30T04:07:16;53062.00;;;-139.96;42.54
7906;BME280;13291;40.472;-3.878;2023-04-30T04:09:43;53048.00;;;-139.96;42.56
7906;BME280;13291;40.472;-3.878;2023-04-30T04:12:10;53048.00;;;-139.96;41.95
7906;BME280;13291;40.472;-3.878;2023-04-30T04:14:37;53076.00;;;-139.96;42.27
7906;BME280;13291;40.472;-3.878;2023-04-30T04:17:05;53050.00;;;-139.96;42.59
7906;BME280;13291;40.472;-3.878;2023-04-30T04:19:32;53098.00;;;-139.96;42.36
7906;BME280;13291;40.472;-3.878;2023-04-30T04:21:59;53054.00;;;-139.96;42.76
7906;BME280;13291;40.472;-3.878;2023-04-30T04:24:26;53066.00;;;-139.96;42.72
7906;BME280;13291;40.472;-3.878;2023-04-30T04:26:53;53066.00;;;-139.96;43.24
7906;BME280;13291;40.472;-3.878;2023-04-30T04:29:20;53044.00;;;-139.96;42.98
7906;BME280;13291;40.472;-3.878;2023-04-30T04:31:47;53042.00;;;-139.96;43.36
7906;BME280;13291;40.472;-3.878;2023-04-30T04:34:17;53070.00;;;-139.96;43.55
7906;BME280;13291;40.472;-3.878;2023-04-30T04:36:44;53070.00;;;-139.96;43.69
7906;BME280;13291;40.472;-3.878;2023-04-30T04:39:11;53066.00;;;-139.96;43.91
7906;BME280;13291;40.472;-3.878;2023-04-30T04:41:38;53058.00;;;-139.96;44.08
7906;BME280;13291;40.472;-3.878;2023-04-30T04:44:05;53066.00;;;-139.96;43.95
7906;BME280;13291;40.472;-3.878;2023-04-30T04:46:33;53058.00;;;-139.96;44.17
7906;BME280;13291;40.472;-3.878;2023-04-30T04:49:02;53068.00;;;-139.96;44.54
7906;BME280;13291;40.472;-3.878;2023-04-30T04:51:31;53086.00;;;-139.96;44.19
7906;BME280;13291;40.472;-3.878;2023-04-30T04:53:58;53078.00;;;-139.96;44.91
7906;BME280;13291;40.472;-3.878;2023-04-30T04:56:25;53048.00;;;-139.96;44.99
7906;BME280;13291;40.472;-3.878;2023-04-30T04:58:52;53074.00;;;-139.96;45.58
7906;BME280;13291;40.472;-3.878;2023-04-30T05:01:19;53074.00;;;-139.96;46.23
7906;BME280;13291;40.472;-3.878;2023-04-30T05:03:46;53074.00;;;-139.96;46.33
7906;BME280;13291;40.472;-3.878;2023-04-30T05:06:13;53078.00;;;-139.96;46.73
7906;BME280;13291;40.472;-3.878;2023-04-30T05:08:41;53064.00;;;-139.96;46.95
7906;BME280;13291;40.472;-3.878;2023-04-30T05:11:08;53046.00;;;-139.96;47.06
7906;BME280;13291;40.472;-3.878;2023-04-30T05:13:35;53094.00;;;-139.96;47.28
7906;BME280;13291;40.472;-3.878;2023-04-30T05:16:03;53074.00;;;-139.96;47.37
7906;BME280;13291;40.472;-3.878;2023-04-30T05:18:30;53094.00;;;-139.96;47.56
7906;BME280;13291;40.472;-3.878;2023-04-30T05:20:59;53098.00;;;-139.96;47.97
7906;BME280;13291;40.472;-3.878;2023-04-30T05:23:26;53098.00;;;-139.96;48.12
7906;BME280;13291;40.472;-3.878;2023-04-30T05:25:54;53078.00;;;-139.96;48.20
7906;BME280;13291;40.472;-3.878;2023-04-30T05:28:21;53064.00;;;-139.96;47.92
7906;BME280;13291;40.472;-3.878;2023-04-30T05:30:48;53080.00;;;-139.96;48.05
7906;BME280;13291;40.472;-3.878;2023-04-30T05:33:15;53048.00;;;-139.96;47.89
7906;BME280;13291;40.472;-3.878;2023-04-30T05:35:42;53090.00;;;-139.96;48.44
7906;BME280;13291;40.472;-3.878;2023-04-30T05:38:09;53062.00;;;-139.96;48.60
7906;BME280;13291;40.472;-3.878;2023-04-30T05:40:36;53070.00;;;-139.96;48.60
7906;BME280;13291;40.472;-3.878;2023-04-30T05:43:04;53098.00;;;-139.96;48.19
7906;BME280;13291;40.472;-3.878;2023-04-30T05:45:32;53096.00;;;-139.96;48.66
7906;BME280;13291;40.472;-3.878;2023-04-30T05:47:59;53086.00;;;-139.96;48.57
7906;BME280;13291;40.472;-3.878;2023-04-30T05:50:26;53096.00;;;-139.96;48.73
7906;BME280;13291;40.472;-3.878;2023-04-30T05:52:53;53074.00;;;-139.96;48.37
7906;BME280;13291;40.472;-3.878;2023-04-30T05:55:20;53076.00;;;-139.96;48.45
7906;BME280;13291;40.472;-3.878;2023-04-30T05:57:46;53090.00;;;-139.96;48.37
7906;BME280;13291;40.472;-3.878;2023-04-30T06:00:15;53104.00;;;-139.96;48.44
7906;BME280;13291;40.472;-3.878;2023-04-30T06:02:42;53088.00;;;-139.96;48.43
7906;BME280;13291;40.472;-3.878;2023-04-30T06:05:09;53102.00;;;-139.96;48.28
7906;BME280;13291;40.472;-3.878;2023-04-30T06:07:36;53090.00;;;-139.96;48.49
7906;BME280;13291;40.472;-3.878;2023-04-30T06:10:04;53080.00;;;-139.96;48.29
7906;BME280;13291;40.472;-3.878;2023-04-30T06:12:31;53076.00;;;-139.96;48.31
7906;BME280;13291;40.472;-3.878;2023-04-30T06:14:58;53094.00;;;-139.96;48.46
7906;BME280;13291;40.472;-3.878;2023-04-30T06:17:26;53064.00;;;-139.96;48.46
7906;BME280;13291;40.472;-3.878;2023-04-30T06:19:53;53066.00;;;-139.96;48.44
7906;BME280;13291;40.472;-3.878;2023-04-30T06:22:20;53056.00;;;-139.96;48.37
7906;BME280;13291;40.472;-3.878;2023-04-30T06:24:47;53072.00;;;-139.96;48.44
7906;BME280;13291;40.472;-3.878;2023-04-30T06:27:14;53082.00;;;-139.96;48.92
7906;BME280;13291;40.472;-3.878;2023-04-30T06:29:41;53076.00;;;-139.96;48.66
7906;BME280;13291;40.472;-3.878;2023-04-30T06:32:07;53092.00;;;-139.96;48.68
7906;BME280;13291;40.472;-3.878;2023-04-30T06:34:37;53082.00;;;-139.96;48.50
7906;BME280;13291;40.472;-3.878;2023-04-30T06:37:04;53076.00;;;-139.96;48.47
7906;BME280;13291;40.472;-3.878;2023-04-30T06:39:31;53114.00;;;-139.96;48.32
7906;BME280;13291;40.472;-3.878;2023-04-30T06:41:57;53086.00;;;-139.96;48.29
7906;BME280;13291;40.472;-3.878;2023-04-30T06:44:24;53086.00;;;-139.96;48.08
7906;BME280;13291;40.472;-3.878;2023-04-30T06:46:51;53070.00;;;-139.96;48.22
7906;BME280;13291;40.472;-3.878;2023-04-30T06:49:18;53086.00;;;-139.96;48.07
7906;BME280;13291;40.472;-3.878;2023-04-30T06:51:47;53070.00;;;-139.96;48.27
7906;BME280;13291;40.472;-3.878;2023-04-30T06:54:13;53070.00;;;-139.96;48.34
7906;BME280;13291;40.472;-3.878;2023-04-30T06:56:40;53068.00;;;-139.96;48.14
7906;BME280;13291;40.472;-3.878;2023-04-30T06:59:08;53078.00;;;-139.96;48.51
7906;BME280;13291;40.472;-3.878;2023-04-30T07:01:35;53076.00;;;-139.96;47.87
7906;BME280;13291;40.472;-3.878;2023-04-30T07:04:02;53058.00;;;-139.96;47.64
7906;BME280;13291;40.472;-3.878;2023-04-30T07:06:29;53076.00;;;-139.96;47.60
7906;BME280;13291;40.472;-3.878;2023-04-30T07:08:57;53076.00;;;-139.96;48.01
7906;BME280;13291;40.472;-3.878;2023-04-30T07:11:24;53062.00;;;-139.96;47.80
7906;BME280;13291;40.472;-3.878;2023-04-30T07:13:51;53088.00;;;-139.96;48.16
7906;BME280;13291;40.472;-3.878;2023-04-30T07:16:18;53086.00;;;-139.96;47.79
7906;BME280;13291;40.472;-3.878;2023-04-30T07:18:45;53094.00;;;-139.96;47.80
7906;BME280;13291;40.472;-3.878;2023-04-30T07:21:13;53058.00;;;-139.96;47.42
7906;BME280;13291;40.472;-3.878;2023-04-30T07:23:40;53090.00;;;-139.96;47.84
7906;BME280;13291;40.472;-3.878;2023-04-30T07:26:08;53088.00;;;-139.96;48.20
7906;BME280;13291;40.472;-3.878;2023-04-30T07:28:35;53074.00;;;-139.96;48.37
7906;BME280;13291;40.472;-3.878;2023-04-30T07:31:02;53048.00;;;-139.96;47.82
7906;BME280;13291;40.472;-3.878;2023-04-30T07:33:29;53086.00;;;-139.96;47.54
7906;BME280;13291;40.472;-3.878;2023-04-30T07:35:56;53076.00;;;-139.96;47.25
7906;BME280;13291;40.472;-3.878;2023-04-30T07:38:23;53054.00;;;-139.96;46.61
7906;BME280;13291;40.472;-3.878;2023-04-30T07:40:50;53078.00;;;-139.96;46.88
7906;BME280;13291;40.472;-3.878;2023-04-30T07:43:18;53062.00;;;-139.96;46.37
7906;BME280;13291;40.472;-3.878;2023-04-30T07:45:45;53066.00;;;-139.96;46.50
7906;BME280;13291;40.472;-3.878;2023-04-30T07:48:13;53076.00;;;-139.96;46.73
7906;BME280;13291;40.472;-3.878;2023-04-30T07:50:41;53082.00;;;-139.96;46.60
7906;BME280;13291;40.472;-3.878;2023-04-30T07:53:08;53054.00;;;-139.96;46.79
7906;BME280;13291;40.472;-3.878;2023-04-30T07:55:34;53060.00;;;-139.96;46.16
7906;BME280;13291;40.472;-3.878;2023-04-30T07:58:01;53068.00;;;-139.96;46.26
7906;BME280;13291;40.472;-3.878;2023-04-30T08:00:30;53058.00;;;-139.96;46.12
7906;BME280;13291;40.472;-3.878;2023-04-30T08:02:57;53044.00;;;-139.96;46.09
7906;BME280;13291;40.472;-3.878;2023-04-30T08:05:24;53042.00;;;-139.96;45.42
7906;BME280;13291;40.472;-3.878;2023-04-30T08:07:51;53036.00;;;-139.96;45.76
7906;BME280;13291;40.472;-3.878;2023-04-30T08:10:18;53040.00;;;-139.96;45.89
7906;BME280;13291;40.472;-3.878;2023-04-30T08:12:45;53058.00;;;-139.96;45.59
7906;BME280;13291;40.472;-3.878;2023-04-30T08:15:12;53038.00;;;-139.96;45.32
7906;BME280;13291;40.472;-3.878;2023-04-30T08:17:41;53046.00;;;-139.96;44.90
7906;BME280;13291;40.472;-3.878;2023-04-30T08:20:08;53024.00;;;-139.96;45.37
7906;BME280;13291;40.472;-3.878;2023-04-30T08:22:35;53036.00;;;-139.96;44.81
7906;BME280;13291;40.472;-3.878;2023-04-30T08:25:03;53042.00;;;-139.96;44.03
7906;BME280;13291;40.472;-3.878;2023-04-30T08:27:30;53044.00;;;-139.96;44.43
7906;BME280;13291;40.472;-3.878;2023-04-30T08:29:57;53046.00;;;-139.96;43.86
7906;BME280;13291;40.472;-3.878;2023-04-30T08:32:24;53028.00;;;-139.96;44.48
7906;BME280;13291;40.472;-3.878;2023-04-30T08:34:52;53026.00;;;-139.96;44.10
7906;BME280;13291;40.472;-3.878;2023-04-30T08:37:19;53052.00;;;-139.96;43.48
7906;BME280;13291;40.472;-3.878;2023-04-30T08:39:46;53022.00;;;-139.96;43.74
7906;BME280;13291;40.472;-3.878;2023-04-30T08:42:14;53046.00;;;-139.96;43.50
7906;BME280;13291;40.472;-3.878;2023-04-30T08:44:42;53044.00;;;-139.96;43.40
7906;BME280;13291;40.472;-3.878;2023-04-30T08:47:11;52989.97;;;-139.96;42.74
7906;BME280;13291;40.472;-3.878;2023-04-30T08:49:39;53026.00;;;-139.96;42.81
7906;BME280;13291;40.472;-3.878;2023-04-30T08:52:07;53026.00;;;-139.96;43.30
7906;BME280;13291;40.472;-3.878;2023-04-30T08:54:35;53016.00;;;-139.96;42.93
7906;BME280;13291;40.472;-3.878;2023-04-30T08:57:02;53028.00;;;-139.96;43.26
7906;BME280;13291;40.472;-3.878;2023-04-30T08:59:29;53050.00;;;-139.96;42.70
7906;BME280;13291;40.472;-3.878;2023-04-30T09:01:56;52979.97;;;-139.96;42.06
7906;BME280;13291;40.472;-3.878;2023-04-30T09:04:23;53046.00;;;-139.96;42.07
7906;BME280;13291;40.472;-3.878;2023-04-30T09:06:51;53028.00;;;-139.96;41.65
7906;BME280;13291;40.472;-3.878;2023-04-30T09:09:27;53005.97;;;-139.96;41.60
7906;BME280;13291;40.472;-3.878;2023-04-30T09:12:10;53046.00;;;-139.96;41.70
7906;BME280;13291;40.472;-3.878;2023-04-30T09:14:38;53012.00;;;-139.96;41.67
7906;BME280;13291;40.472;-3.878;2023-04-30T09:17:06;53001.97;;;-139.96;41.45
7906;BME280;13291;40.472;-3.878;2023-04-30T09:19:34;53007.97;;;-139.96;41.89
7906;BME280;13291;40.472;-3.878;2023-04-30T09:22:19;52991.97;;;-139.96;41.11
7906;BME280;13291;40.472;-3.878;2023-04-30T09:24:48;52987.97;;;-139.96;41.26
7906;BME280;13291;40.472;-3.878;2023-04-30T09:27:16;53005.97;;;-139.96;41.21
7906;BME280;13291;40.472;-3.878;2023-04-30T09:29:44;52961.97;;;-139.96;39.24
7906;BME280;13291;40.472;-3.878;2023-04-30T09:32:11;53020.00;;;-139.96;39.55
7906;BME280;13291;40.472;-3.878;2023-04-30T09:34:39;52989.97;;;-139.96;41.23
7906;BME280;13291;40.472;-3.878;2023-04-30T09:37:08;52971.97;;;-139.96;39.81
7906;BME280;13291;40.472;-3.878;2023-04-30T09:39:47;52999.97;;;-139.96;40.36
7906;BME280;13291;40.472;-3.878;2023-04-30T09:42:15;53018.00;;;-139.96;40.48
7906;BME280;13291;40.472;-3.878;2023-04-30T09:44:42;52985.97;;;-139.96;40.82
7906;BME280;13291;40.472;-3.878;2023-04-30T09:47:14;52999.97;;;-139.96;40.12
7906;BME280;13291;40.472;-3.878;2023-04-30T09:49:42;53007.97;;;-139.96;38.91
7906;BME280;13291;40.472;-3.878;2023-04-30T09:52:10;52965.97;;;-139.96;38.72
7906;BME280;13291;40.472;-3.878;2023-04-30T09:54:37;52993.97;;;-139.96;38.76
7906;BME280;13291;40.472;-3.878;2023-04-30T09:57:09;52973.97;;;-139.96;38.37
7906;BME280;13291;40.472;-3.878;2023-04-30T09:59:37;52999.97;;;-139.96;39.18
7906;BME280;13291;40.472;-3.878;2023-04-30T10:02:07;52971.97;;;-139.96;37.96
7906;BME280;13291;40.472;-3.878;2023-04-30T10:04:36;52979.97;;;-139.96;37.75
7906;BME280;13291;40.472;-3.878;2023-04-30T10:07:05;52989.97;;;-139.96;38.23
7906;BME280;13291;40.472;-3.878;2023-04-30T10:09:39;52983.97;;;-139.96;38.31
7906;BME280;13291;40.472;-3.878;2023-04-30T10:12:13;52965.97;;;-139.96;37.21
7906;BME280;13291;40.472;-3.878;2023-04-30T10:14:51;52967.97;;;-139.96;37.18
7906;BME280;13291;40.472;-3.878;2023-04-30T10:17:23;52989.97;;;-139.96;37.30
7906;BME280;13291;40.472;-3.878;2023-04-30T10:19:56;52989.97;;;-139.96;38.02
7906;BME280;13291;40.472;-3.878;2023-04-30T10:22:24;52991.97;;;-139.96;37.97
7906;BME280;13291;40.472;-3.878;2023-04-30T10:24:52;52985.97;;;-139.96;38.26
7906;BME280;13291;40.472;-3.878;2023-04-30T10:27:21;52985.97;;;-139.96;38.59
7906;BME280;13291;40.472;-3.878;2023-04-30T10:29:48;52991.97;;;-139.96;38.77
7906;BME280;13291;40.472;-3.878;2023-04-30T10:32:17;52981.97;;;-139.96;38.30
7906;BME280;13291;40.472;-3.878;2023-04-30T10:34:50;52985.97;;;-139.96;38.78
7906;BME280;13291;40.472;-3.878;2023-04-30T10:37:23;52971.97;;;-139.96;37.21
7906;BME280;13291;40.472;-3.878;2023-04-30T10:39:54;52955.97;;;-139.96;37.04
7906;BME280;13291;40.472;-3.878;2023-04-30T10:42:23;52999.97;;;-139.96;37.79
7906;BME280;13291;40.472;-3.878;2023-04-30T10:44:50;52973.97;;;-139.96;38.64
7906;BME280;13291;40.472;-3.878;2023-04-30T10:47:17;52997.97;;;-139.96;38.40
7906;BME280;13291;40.472;-3.878;2023-04-30T10:49:45;52969.97;;;-139.96;38.83
7906;BME280;13291;40.472;-3.878;2023-04-30T10:52:13;52969.97;;;-139.96;37.56
7906;BME280;13291;40.472;-3.878;2023-04-30T10:54:40;52973.97;;;-139.96;37.91
7906;BME280;13291;40.472;-3.878;2023-04-30T10:57:16;52961.97;;;-139.96;38.26
7906;BME280;13291;40.472;-3.878;2023-04-30T10:59:52;52961.97;;;-139.96;38.78
7906;BME280;13291;40.472;-3.878;2023-04-30T11:02:19;52979.97;;;-139.96;38.18
7906;BME280;13291;40.472;-3.878;2023-04-30T11:05:09;52971.97;;;-139.96;37.73
7906;BME280;13291;40.472;-3.878;2023-04-30T11:07:36;52973.97;;;-139.96;37.34
7906;BME280;13291;40.472;-3.878;2023-04-30T11:10:06;52979.97;;;-139.96;37.43
7906;BME280;13291;40.472;-3.878;2023-04-30T11:12:34;52973.97;;;-139.96;36.73
7906;BME280;13291;40.472;-3.878;2023-04-30T11:15:12;52965.97;;;-139.96;38.35
7906;BME280;13291;40.472;-3.878;2023-04-30T11:17:42;52957.97;;;-139.96;37.40
7906;BME280;13291;40.472;-3.878;2023-04-30T11:20:11;52977.97;;;-139.96;35.34
7906;BME280;13291;40.472;-3.878;2023-04-30T11:22:38;52963.97;;;-139.96;37.66
7906;BME280;13291;40.472;-3.878;2023-04-30T11:25:08;52951.97;;;-139.96;37.23
7906;BME280;13291;40.472;-3.878;2023-04-30T11:27:37;52969.97;;;-139.96;37.18
7906;BME280;13291;40.472;-3.878;2023-04-30T11:30:11;52949.97;;;-139.96;35.70
7906;BME280;13291;40.472;-3.878;2023-04-30T11:32:40;52953.97;;;-139.96;36.60
7906;BME280;13291;40.472;-3.878;2023-04-30T11:35:08;52987.97;;;-139.96;35.03
7906;BME280;13291;40.472;-3.878;2023-04-30T11:37:36;52979.97;;;-139.96;35.97
7906;BME280;13291;40.472;-3.878;2023-04-30T11:40:04;52969.97;;;-139.96;35.64
7906;BME280;13291;40.472;-3.878;2023-04-30T11:42:32;52967.97;;;-139.96;35.03
7906;BME280;13291;40.472;-3.878;2023-04-30T11:45:07;52963.97;;;-139.96;35.17
7906;BME280;13291;40.472;-3.878;2023-04-30T11:47:40;52953.97;;;-139.96;34.91
7906;BME280;13291;40.472;-3.878;2023-04-30T11:50:08;52941.97;;;-139.96;35.55
7906;BME280;13291;40.472;-3.878;2023-04-30T11:52:35;52915.97;;;-139.96;34.82
7906;BME280;13291;40.472;-3.878;2023-04-30T11:55:05;52929.97;;;-139.96;34.96
7906;BME280;13291;40.472;-3.878;2023-04-30T11:57:39;52949.97;;;-139.96;34.63
7906;BME280;13291;40.472;-3.878;2023-04-30T12:00:11;52943.97;;;-139.96;34.78
7906;BME280;13291;40.472;-3.878;2023-04-30T12:02:40;52933.97;;;-139.96;33.14
7906;BME280;13291;40.472;-3.878;2023-04-30T12:05:15;52949.97;;;-139.96;32.71
7906;BME280;13291;40.472;-3.878;2023-04-30T12:07:47;52927.97;;;-139.96;33.49
7906;BME280;13291;40.472;-3.878;2023-04-30T12:10:14;52929.97;;;-139.96;34.10
7906;BME280;13291;40.472;-3.878;2023-04-30T12:12:42;52923.97;;;-139.96;33.51
7906;BME280;13291;40.472;-3.878;2023-04-30T12:15:14;52949.97;;;-139.96;32.40
7906;BME280;13291;40.472;-3.878;2023-04-30T12:17:43;52943.97;;;-139.96;32.40
7906;BME280;13291;40.472;-3.878;2023-04-30T12:20:11;52925.97;;;-139.96;32.07
7906;BME280;13291;40.472;-3.878;2023-04-30T12:22:39;52915.97;;;-139.96;32.05
7906;BME280;13291;40.472;-3.878;2023-04-30T12:25:08;52949.97;;;-139.96;33.03
7906;BME280;13291;40.472;-3.878;2023-04-30T12:27:39;52939.97;;;-139.96;34.30
7906;BME280;13291;40.472;-3.878;2023-04-30T12:30:06;52941.97;;;-139.96;33.05
7906;BME280;13291;40.472;-3.878;2023-04-30T12:32:38;52945.97;;;-139.96;33.08
7906;BME280;13291;40.472;-3.878;2023-04-30T12:35:08;52955.97;;;-139.96;33.13
7906;BME280;13291;40.472;-3.878;2023-04-30T12:37:41;52917.97;;;-139.96;33.39
7906;BME280;13291;40.472;-3.878;2023-04-30T12:40:09;52937.97;;;-139.96;33.20
7906;BME280;13291;40.472;-3.878;2023-04-30T12:42:37;52913.97;;;-139.96;33.20
7906;BME280;13291;40.472;-3.878;2023-04-30T12:45:04;52923.97;;;-139.96;33.90
7906;BME280;13291;40.472;-3.878;2023-04-30T12:47:31;52937.97;;;-139.96;34.67
7906;BME280;13291;40.472;-3.878;2023-04-30T12:49:58;52931.97;;;-139.96;34.34